Midale, Canada
Current Conditions -  °F | °C
As of 6:00 AM on Sunday 23 Nov 2014 (Local Time) from CYEN Reporting Station
Light Snow Light Snow  
Wind Chill: 14°   Ceiling: 1200
Heat Index: 27°   Visibility: 2mi
Dew Point: 25°   Wind: 17mph
Humidity: 93%   Direction: 290°WNW
Pressure: 29.31"   Gusts: NA
Location:  49.39°N, 103.41°W
Report Text: CYEN 231200Z 29015KT 2SM -SN DRSN OVC012 M03/M04 A2931 RMK SC8SNW CVR/ TRACE LOOSE SLP950
Loading
Personal Weather Stations






























Interactive Weather Map New forecast layout! Learn more

10-Day Weather Forecast

Advertisements
Track Severe Weather on mobile